sensor_id;sensor_type;location;lat;lon;timestamp;P1;durP1;ratioP1;P2;durP2;ratioP2
34102;SDS011;20381;54.498;18.206;2022-12-05T00:00:53;24.17;;;14.23;;
34102;SDS011;20381;54.498;18.206;2022-12-05T00:03:20;21.07;;;14.03;;
34102;SDS011;20381;54.498;18.206;2022-12-05T00:05:47;20.68;;;13.80;;
34102;SDS011;20381;54.498;18.206;2022-12-05T00:08:14;18.75;;;13.32;;
34102;SDS011;20381;54.498;18.206;2022-12-05T00:10:40;26.50;;;17.40;;
34102;SDS011;20381;54.498;18.206;2022-12-05T00:13:07;21.60;;;15.15;;
34102;SDS011;20381;54.498;18.206;2022-12-05T00:15:38;20.25;;;12.45;;
34102;SDS011;20381;54.498;18.206;2022-12-05T00:18:06;27.77;;;14.30;;
34102;SDS011;20381;54.498;18.206;2022-12-05T00:20:33;24.63;;;14.30;;
34102;SDS011;20381;54.498;18.206;2022-12-05T00:23:00;21.45;;;13.48;;
34102;SDS011;20381;54.498;18.206;2022-12-05T00:25:27;23.55;;;16.27;;
34102;SDS011;20381;54.498;18.206;2022-12-05T00:27:53;17.98;;;11.93;;
34102;SDS011;20381;54.498;18.206;2022-12-05T00:30:20;22.20;;;14.30;;
34102;SDS011;20381;54.498;18.206;2022-12-05T00:32:47;21.52;;;13.90;;
34102;SDS011;20381;54.498;18.206;2022-12-05T00:35:13;21.42;;;13.75;;
34102;SDS011;20381;54.498;18.206;2022-12-05T00:37:40;20.70;;;13.40;;
34102;SDS011;20381;54.498;18.206;2022-12-05T00:40:07;24.50;;;15.55;;
34102;SDS011;20381;54.498;18.206;2022-12-05T00:42:34;27.70;;;16.25;;
34102;SDS011;20381;54.498;18.206;2022-12-05T00:45:01;21.23;;;14.40;;
34102;SDS011;20381;54.498;18.206;2022-12-05T00:47:28;23.40;;;13.88;;
34102;SDS011;20381;54.498;18.206;2022-12-05T00:49:55;21.10;;;14.25;;
34102;SDS011;20381;54.498;18.206;2022-12-05T00:52:21;18.42;;;11.93;;
34102;SDS011;20381;54.498;18.206;2022-12-05T00:54:48;20.30;;;13.68;;
34102;SDS011;20381;54.498;18.206;2022-12-05T00:57:15;18.50;;;12.88;;
34102;SDS011;20381;54.498;18.206;2022-12-05T00:59:41;18.85;;;12.80;;
34102;SDS011;20381;54.498;18.206;2022-12-05T01:02:08;19.70;;;13.38;;
34102;SDS011;20381;54.498;18.206;2022-12-05T01:04:34;18.02;;;13.32;;
34102;SDS011;20381;54.498;18.206;2022-12-05T01:07:02;16.60;;;11.70;;
34102;SDS011;20381;54.498;18.206;2022-12-05T01:09:28;15.75;;;11.65;;
34102;SDS011;20381;54.498;18.206;2022-12-05T01:11:55;16.07;;;11.88;;
34102;SDS011;20381;54.498;18.206;2022-12-05T01:14:22;17.82;;;12.43;;
34102;SDS011;20381;54.498;18.206;2022-12-05T01:16:51;22.55;;;12.00;;
34102;SDS011;20381;54.498;18.206;2022-12-05T01:19:22;15.72;;;11.57;;
34102;SDS011;20381;54.498;18.206;2022-12-05T01:21:52;16.90;;;12.25;;
34102;SDS011;20381;54.498;18.206;2022-12-05T01:24:19;18.52;;;13.13;;
34102;SDS011;20381;54.498;18.206;2022-12-05T01:26:48;18.37;;;13.62;;
34102;SDS011;20381;54.498;18.206;2022-12-05T01:29:15;22.15;;;14.40;;
34102;SDS011;20381;54.498;18.206;2022-12-05T01:31:45;19.15;;;11.70;;
34102;SDS011;20381;54.498;18.206;2022-12-05T01:34:13;22.77;;;13.72;;
34102;SDS011;20381;54.498;18.206;2022-12-05T01:36:41;16.90;;;11.83;;
34102;SDS011;20381;54.498;18.206;2022-12-05T01:39:09;17.30;;;12.03;;
34102;SDS011;20381;54.498;18.206;2022-12-05T01:41:39;21.62;;;11.93;;
34102;SDS011;20381;54.498;18.206;2022-12-05T01:46:45;16.67;;;11.85;;
34102;SDS011;20381;54.498;18.206;2022-12-05T01:49:20;19.85;;;13.10;;
34102;SDS011;20381;54.498;18.206;2022-12-05T01:51:58;18.52;;;12.98;;
34102;SDS011;20381;54.498;18.206;2022-12-05T01:54:43;17.48;;;11.90;;
34102;SDS011;20381;54.498;18.206;2022-12-05T01:57:14;16.48;;;11.68;;
34102;SDS011;20381;54.498;18.206;2022-12-05T01:59:43;20.77;;;12.58;;
34102;SDS011;20381;54.498;18.206;2022-12-05T02:02:12;21.20;;;13.88;;
34102;SDS011;20381;54.498;18.206;2022-12-05T02:04:42;18.10;;;12.53;;
34102;SDS011;20381;54.498;18.206;2022-12-05T02:07:11;19.48;;;13.83;;
34102;SDS011;20381;54.498;18.206;2022-12-05T02:09:38;19.40;;;13.48;;
34102;SDS011;20381;54.498;18.206;2022-12-05T02:12:05;18.42;;;13.65;;
34102;SDS011;20381;54.498;18.206;2022-12-05T02:14:45;22.00;;;14.70;;
34102;SDS011;20381;54.498;18.206;2022-12-05T02:17:50;20.08;;;15.15;;
34102;SDS011;20381;54.498;18.206;2022-12-05T02:23:31;27.55;;;15.58;;
34102;SDS011;20381;54.498;18.206;2022-12-05T02:26:36;28.52;;;16.75;;
34102;SDS011;20381;54.498;18.206;2022-12-05T02:29:29;22.32;;;15.83;;
34102;SDS011;20381;54.498;18.206;2022-12-05T02:32:00;21.05;;;14.10;;
34102;SDS011;20381;54.498;18.206;2022-12-05T02:34:59;21.33;;;14.47;;
34102;SDS011;20381;54.498;18.206;2022-12-05T02:40:13;19.32;;;13.95;;
34102;SDS011;20381;54.498;18.206;2022-12-05T02:43:10;22.07;;;15.53;;
34102;SDS011;20381;54.498;18.206;2022-12-05T02:45:46;20.35;;;13.68;;
34102;SDS011;20381;54.498;18.206;2022-12-05T02:48:15;20.20;;;15.08;;
34102;SDS011;20381;54.498;18.206;2022-12-05T02:50:44;21.50;;;16.00;;
34102;SDS011;20381;54.498;18.206;2022-12-05T02:53:14;22.50;;;12.43;;
34102;SDS011;20381;54.498;18.206;2022-12-05T02:55:42;22.77;;;16.20;;
34102;SDS011;20381;54.498;18.206;2022-12-05T02:58:12;24.85;;;16.95;;
34102;SDS011;20381;54.498;18.206;2022-12-05T03:00:46;22.27;;;15.28;;
34102;SDS011;20381;54.498;18.206;2022-12-05T03:03:16;17.87;;;14.38;;
34102;SDS011;20381;54.498;18.206;2022-12-05T03:08:35;21.75;;;14.78;;
34102;SDS011;20381;54.498;18.206;2022-12-05T03:11:02;20.48;;;14.18;;
34102;SDS011;20381;54.498;18.206;2022-12-05T03:13:31;22.70;;;15.15;;
34102;SDS011;20381;54.498;18.206;2022-12-05T03:16:11;25.37;;;14.05;;
34102;SDS011;20381;54.498;18.206;2022-12-05T03:18:44;15.40;;;12.37;;
34102;SDS011;20381;54.498;18.206;2022-12-05T03:21:18;18.25;;;13.95;;
34102;SDS011;20381;54.498;18.206;2022-12-05T03:24:05;19.52;;;12.95;;
34102;SDS011;20381;54.498;18.206;2022-12-05T03:26:43;22.77;;;15.55;;
34102;SDS011;20381;54.498;18.206;2022-12-05T03:29:35;20.97;;;14.07;;
34102;SDS011;20381;54.498;18.206;2022-12-05T03:38:17;20.12;;;15.70;;
34102;SDS011;20381;54.498;18.206;2022-12-05T03:40:59;21.40;;;14.60;;
34102;SDS011;20381;54.498;18.206;2022-12-05T03:43:39;21.85;;;14.45;;
34102;SDS011;20381;54.498;18.206;2022-12-05T03:46:08;16.48;;;11.90;;
34102;SDS011;20381;54.498;18.206;2022-12-05T03:51:52;19.75;;;14.43;;
34102;SDS011;20381;54.498;18.206;2022-12-05T03:54:40;20.68;;;14.90;;
34102;SDS011;20381;54.498;18.206;2022-12-05T03:57:20;18.80;;;14.90;;
34102;SDS011;20381;54.498;18.206;2022-12-05T04:00:00;17.37;;;13.38;;
34102;SDS011;20381;54.498;18.206;2022-12-05T04:08:16;25.20;;;14.13;;
34102;SDS011;20381;54.498;18.206;2022-12-05T04:10:43;20.00;;;15.30;;
34102;SDS011;20381;54.498;18.206;2022-12-05T04:13:17;22.67;;;17.23;;
34102;SDS011;20381;54.498;18.206;2022-12-05T04:19:06;17.20;;;13.22;;
34102;SDS011;20381;54.498;18.206;2022-12-05T04:21:50;18.25;;;13.05;;
34102;SDS011;20381;54.498;18.206;2022-12-05T04:24:22;18.55;;;14.23;;
34102;SDS011;20381;54.498;18.206;2022-12-05T04:27:21;22.20;;;13.10;;
34102;SDS011;20381;54.498;18.206;2022-12-05T04:30:09;18.50;;;15.13;;
34102;SDS011;20381;54.498;18.206;2022-12-05T04:35:34;20.97;;;14.18;;
34102;SDS011;20381;54.498;18.206;2022-12-05T04:38:19;19.02;;;15.10;;
34102;SDS011;20381;54.498;18.206;2022-12-05T04:40:59;21.12;;;15.08;;
34102;SDS011;20381;54.498;18.206;2022-12-05T04:43:32;19.00;;;14.78;;
34102;SDS011;20381;54.498;18.206;2022-12-05T04:46:02;20.88;;;14.53;;
34102;SDS011;20381;54.498;18.206;2022-12-05T04:48:34;19.95;;;13.60;;
34102;SDS011;20381;54.498;18.206;2022-12-05T04:51:03;17.12;;;14.60;;
34102;SDS011;20381;54.498;18.206;2022-12-05T04:53:34;44.08;;;17.17;;
34102;SDS011;20381;54.498;18.206;2022-12-05T04:56:02;24.57;;;16.45;;
34102;SDS011;20381;54.498;18.206;2022-12-05T04:58:31;20.27;;;13.83;;
34102;SDS011;20381;54.498;18.206;2022-12-05T05:01:09;31.40;;;15.33;;
34102;SDS011;20381;54.498;18.206;2022-12-05T05:03:51;21.68;;;14.60;;
34102;SDS011;20381;54.498;18.206;2022-12-05T05:06:23;24.27;;;17.23;;
34102;SDS011;20381;54.498;18.206;2022-12-05T05:11:24;19.02;;;13.83;;
34102;SDS011;20381;54.498;18.206;2022-12-05T05:13:54;19.60;;;15.40;;
34102;SDS011;20381;54.498;18.206;2022-12-05T05:16:22;20.25;;;15.53;;
34102;SDS011;20381;54.498;18.206;2022-12-05T05:18:54;23.20;;;16.70;;
34102;SDS011;20381;54.498;18.206;2022-12-05T05:24:02;24.50;;;16.20;;
34102;SDS011;20381;54.498;18.206;2022-12-05T05:26:30;21.93;;;15.18;;
34102;SDS011;20381;54.498;18.206;2022-12-05T05:29:00;21.73;;;15.13;;
34102;SDS011;20381;54.498;18.206;2022-12-05T05:31:27;23.85;;;16.60;;
34102;SDS011;20381;54.498;18.206;2022-12-05T05:33:55;24.80;;;17.23;;
34102;SDS011;20381;54.498;18.206;2022-12-05T05:36:24;18.10;;;13.75;;
34102;SDS011;20381;54.498;18.206;2022-12-05T05:38:53;30.20;;;20.12;;
34102;SDS011;20381;54.498;18.206;2022-12-05T05:41:24;25.92;;;15.10;;
34102;SDS011;20381;54.498;18.206;2022-12-05T05:43:57;29.15;;;17.20;;
34102;SDS011;20381;54.498;18.206;2022-12-05T05:46:25;23.98;;;16.40;;
34102;SDS011;20381;54.498;18.206;2022-12-05T05:48:54;22.85;;;16.15;;
34102;SDS011;20381;54.498;18.206;2022-12-05T05:51:21;21.62;;;15.93;;
34102;SDS011;20381;54.498;18.206;2022-12-05T05:53:54;23.27;;;16.00;;
34102;SDS011;20381;54.498;18.206;2022-12-05T05:56:22;24.87;;;16.85;;
34102;SDS011;20381;54.498;18.206;2022-12-05T05:58:53;21.12;;;15.78;;
34102;SDS011;20381;54.498;18.206;2022-12-05T06:01:25;25.90;;;17.05;;
34102;SDS011;20381;54.498;18.206;2022-12-05T06:03:53;22.93;;;16.40;;
34102;SDS011;20381;54.498;18.206;2022-12-05T06:06:20;26.57;;;18.25;;
34102;SDS011;20381;54.498;18.206;2022-12-05T06:08:47;21.42;;;16.67;;
34102;SDS011;20381;54.498;18.206;2022-12-05T06:11:15;23.67;;;16.17;;
34102;SDS011;20381;54.498;18.206;2022-12-05T06:13:45;19.62;;;15.48;;
34102;SDS011;20381;54.498;18.206;2022-12-05T06:16:13;23.30;;;17.30;;
34102;SDS011;20381;54.498;18.206;2022-12-05T06:18:41;26.70;;;18.82;;
34102;SDS011;20381;54.498;18.206;2022-12-05T06:21:08;23.03;;;16.33;;
34102;SDS011;20381;54.498;18.206;2022-12-05T06:26:03;25.88;;;19.00;;
34102;SDS011;20381;54.498;18.206;2022-12-05T06:28:33;23.52;;;19.12;;
34102;SDS011;20381;54.498;18.206;2022-12-05T06:31:05;21.87;;;15.03;;
34102;SDS011;20381;54.498;18.206;2022-12-05T06:33:34;22.98;;;17.45;;
34102;SDS011;20381;54.498;18.206;2022-12-05T06:36:02;32.95;;;18.73;;
34102;SDS011;20381;54.498;18.206;2022-12-05T06:38:36;25.02;;;15.15;;
34102;SDS011;20381;54.498;18.206;2022-12-05T06:41:03;25.90;;;18.45;;
34102;SDS011;20381;54.498;18.206;2022-12-05T06:43:34;22.27;;;16.90;;
34102;SDS011;20381;54.498;18.206;2022-12-05T06:46:04;23.30;;;16.87;;
34102;SDS011;20381;54.498;18.206;2022-12-05T06:48:36;26.12;;;16.80;;
34102;SDS011;20381;54.498;18.206;2022-12-05T06:51:02;18.85;;;13.93;;
34102;SDS011;20381;54.498;18.206;2022-12-05T06:53:31;29.42;;;19.50;;
34102;SDS011;20381;54.498;18.206;2022-12-05T06:55:59;24.35;;;15.70;;
34102;SDS011;20381;54.498;18.206;2022-12-05T06:58:28;25.05;;;16.15;;
34102;SDS011;20381;54.498;18.206;2022-12-05T07:00:55;21.87;;;16.20;;
34102;SDS011;20381;54.498;18.206;2022-12-05T07:03:40;21.77;;;15.23;;
34102;SDS011;20381;54.498;18.206;2022-12-05T07:06:08;29.98;;;20.12;;
34102;SDS011;20381;54.498;18.206;2022-12-05T07:08:35;24.50;;;17.55;;
34102;SDS011;20381;54.498;18.206;2022-12-05T07:11:02;19.95;;;13.62;;
34102;SDS011;20381;54.498;18.206;2022-12-05T07:13:29;26.30;;;16.50;;
34102;SDS011;20381;54.498;18.206;2022-12-05T07:15:55;26.15;;;17.25;;
34102;SDS011;20381;54.498;18.206;2022-12-05T07:18:23;27.98;;;18.15;;
34102;SDS011;20381;54.498;18.206;2022-12-05T07:20:54;30.95;;;19.98;;
34102;SDS011;20381;54.498;18.206;2022-12-05T07:23:23;25.00;;;18.20;;
34102;SDS011;20381;54.498;18.206;2022-12-05T07:25:50;26.30;;;17.20;;
34102;SDS011;20381;54.498;18.206;2022-12-05T07:28:17;22.35;;;17.42;;
34102;SDS011;20381;54.498;18.206;2022-12-05T07:30:43;28.20;;;19.98;;
34102;SDS011;20381;54.498;18.206;2022-12-05T07:33:10;22.80;;;17.55;;
34102;SDS011;20381;54.498;18.206;2022-12-05T07:35:37;23.03;;;16.13;;
34102;SDS011;20381;54.498;18.206;2022-12-05T07:38:03;19.42;;;13.93;;
34102;SDS011;20381;54.498;18.206;2022-12-05T07:40:30;23.27;;;16.00;;
34102;SDS011;20381;54.498;18.206;2022-12-05T07:42:56;23.02;;;15.38;;
34102;SDS011;20381;54.498;18.206;2022-12-05T07:45:23;51.28;;;40.88;;
34102;SDS011;20381;54.498;18.206;2022-12-05T07:47:49;36.88;;;25.52;;
34102;SDS011;20381;54.498;18.206;2022-12-05T07:50:16;30.00;;;18.90;;
34102;SDS011;20381;54.498;18.206;2022-12-05T07:52:43;22.17;;;15.40;;
34102;SDS011;20381;54.498;18.206;2022-12-05T07:55:09;18.87;;;14.20;;
34102;SDS011;20381;54.498;18.206;2022-12-05T07:57:36;19.07;;;13.93;;
34102;SDS011;20381;54.498;18.206;2022-12-05T08:00:03;20.77;;;14.80;;
34102;SDS011;20381;54.498;18.206;2022-12-05T08:02:31;21.42;;;14.80;;
34102;SDS011;20381;54.498;18.206;2022-12-05T08:04:58;21.70;;;14.50;;
34102;SDS011;20381;54.498;18.206;2022-12-05T08:07:25;19.67;;;13.73;;
34102;SDS011;20381;54.498;18.206;2022-12-05T08:09:51;19.85;;;13.62;;
34102;SDS011;20381;54.498;18.206;2022-12-05T08:12:18;22.25;;;14.83;;
34102;SDS011;20381;54.498;18.206;2022-12-05T08:14:45;19.85;;;14.45;;
34102;SDS011;20381;54.498;18.206;2022-12-05T08:17:11;24.98;;;15.50;;
34102;SDS011;20381;54.498;18.206;2022-12-05T08:19:38;21.07;;;15.13;;
34102;SDS011;20381;54.498;18.206;2022-12-05T08:22:04;20.08;;;13.98;;
34102;SDS011;20381;54.498;18.206;2022-12-05T08:24:31;21.68;;;14.65;;
34102;SDS011;20381;54.498;18.206;2022-12-05T08:26:57;22.60;;;13.15;;
34102;SDS011;20381;54.498;18.206;2022-12-05T08:29:24;22.58;;;15.20;;
34102;SDS011;20381;54.498;18.206;2022-12-05T08:31:51;23.13;;;14.67;;
34102;SDS011;20381;54.498;18.206;2022-12-05T08:34:18;20.50;;;14.23;;
34102;SDS011;20381;54.498;18.206;2022-12-05T08:36:45;24.02;;;14.90;;
34102;SDS011;20381;54.498;18.206;2022-12-05T08:39:14;21.80;;;14.60;;
34102;SDS011;20381;54.498;18.206;2022-12-05T08:41:45;27.62;;;15.93;;
34102;SDS011;20381;54.498;18.206;2022-12-05T08:44:13;21.40;;;13.90;;
34102;SDS011;20381;54.498;18.206;2022-12-05T08:46:42;22.37;;;14.25;;
34102;SDS011;20381;54.498;18.206;2022-12-05T08:49:11;24.25;;;16.73;;
34102;SDS011;20381;54.498;18.206;2022-12-05T08:51:39;21.40;;;15.48;;
34102;SDS011;20381;54.498;18.206;2022-12-05T08:54:07;21.65;;;15.75;;
34102;SDS011;20381;54.498;18.206;2022-12-05T08:56:34;29.87;;;18.45;;
34102;SDS011;20381;54.498;18.206;2022-12-05T08:59:03;21.40;;;15.23;;
34102;SDS011;20381;54.498;18.206;2022-12-05T09:01:31;22.80;;;15.63;;
34102;SDS011;20381;54.498;18.206;2022-12-05T09:04:02;27.17;;;16.02;;
34102;SDS011;20381;54.498;18.206;2022-12-05T09:06:29;25.35;;;16.27;;
34102;SDS011;20381;54.498;18.206;2022-12-05T09:08:58;25.10;;;16.23;;
34102;SDS011;20381;54.498;18.206;2022-12-05T09:11:30;24.10;;;17.27;;
34102;SDS011;20381;54.498;18.206;2022-12-05T09:14:00;23.25;;;15.15;;
34102;SDS011;20381;54.498;18.206;2022-12-05T09:16:28;23.10;;;16.30;;
34102;SDS011;20381;54.498;18.206;2022-12-05T09:18:58;28.57;;;16.40;;
34102;SDS011;20381;54.498;18.206;2022-12-05T09:21:27;21.60;;;15.05;;
34102;SDS011;20381;54.498;18.206;2022-12-05T09:23:57;19.32;;;14.13;;
34102;SDS011;20381;54.498;18.206;2022-12-05T09:26:26;23.55;;;16.45;;
34102;SDS011;20381;54.498;18.206;2022-12-05T09:28:54;22.65;;;15.68;;
34102;SDS011;20381;54.498;18.206;2022-12-05T09:31:22;24.40;;;14.78;;
34102;SDS011;20381;54.498;18.206;2022-12-05T09:33:51;20.20;;;15.00;;
34102;SDS011;20381;54.498;18.206;2022-12-05T09:36:23;22.32;;;15.90;;
34102;SDS011;20381;54.498;18.206;2022-12-05T09:38:53;20.02;;;13.30;;
34102;SDS011;20381;54.498;18.206;2022-12-05T09:50:25;90.10;;;64.77;;
34102;SDS011;20381;54.498;18.206;2022-12-05T09:58:24;21.20;;;14.55;;
34102;SDS011;20381;54.498;18.206;2022-12-05T10:04:03;20.68;;;14.85;;
34102;SDS011;20381;54.498;18.206;2022-12-05T10:07:12;20.92;;;14.50;;
34102;SDS011;20381;54.498;18.206;2022-12-05T10:15:55;23.98;;;16.90;;
34102;SDS011;20381;54.498;18.206;2022-12-05T10:18:39;27.05;;;17.27;;
34102;SDS011;20381;54.498;18.206;2022-12-05T10:24:05;23.87;;;15.03;;
34102;SDS011;20381;54.498;18.206;2022-12-05T10:26:47;24.18;;;16.27;;
34102;SDS011;20381;54.498;18.206;2022-12-05T10:32:03;19.30;;;14.33;;
34102;SDS011;20381;54.498;18.206;2022-12-05T10:34:37;24.20;;;14.90;;
34102;SDS011;20381;54.498;18.206;2022-12-05T10:37:12;28.67;;;19.37;;
34102;SDS011;20381;54.498;18.206;2022-12-05T10:39:46;25.85;;;16.60;;
34102;SDS011;20381;54.498;18.206;2022-12-05T10:42:16;25.02;;;17.23;;
34102;SDS011;20381;54.498;18.206;2022-12-05T10:44:54;31.20;;;18.55;;
34102;SDS011;20381;54.498;18.206;2022-12-05T10:47:22;29.92;;;18.77;;
34102;SDS011;20381;54.498;18.206;2022-12-05T10:49:49;26.75;;;17.05;;
34102;SDS011;20381;54.498;18.206;2022-12-05T10:52:17;28.30;;;18.95;;
34102;SDS011;20381;54.498;18.206;2022-12-05T10:54:46;29.10;;;19.85;;
34102;SDS011;20381;54.498;18.206;2022-12-05T10:57:27;28.77;;;18.82;;
34102;SDS011;20381;54.498;18.206;2022-12-05T10:59:55;30.97;;;19.20;;
34102;SDS011;20381;54.498;18.206;2022-12-05T11:02:26;29.57;;;18.50;;
34102;SDS011;20381;54.498;18.206;2022-12-05T11:04:56;27.50;;;19.05;;
34102;SDS011;20381;54.498;18.206;2022-12-05T11:07:30;28.73;;;17.95;;
34102;SDS011;20381;54.498;18.206;2022-12-05T11:10:20;25.37;;;18.67;;
34102;SDS011;20381;54.498;18.206;2022-12-05T11:13:13;28.07;;;16.37;;
34102;SDS011;20381;54.498;18.206;2022-12-05T11:15:43;23.92;;;16.52;;
34102;SDS011;20381;54.498;18.206;2022-12-05T11:18:45;25.35;;;17.90;;
34102;SDS011;20381;54.498;18.206;2022-12-05T11:20:53;21.70;;;15.15;;
34102;SDS011;20381;54.498;18.206;2022-12-05T11:25:51;27.45;;;18.60;;
34102;SDS011;20381;54.498;18.206;2022-12-05T11:33:35;27.80;;;19.05;;
34102;SDS011;20381;54.498;18.206;2022-12-05T11:38:44;26.12;;;17.60;;
34102;SDS011;20381;54.498;18.206;2022-12-05T12:01:50;26.93;;;17.92;;
34102;SDS011;20381;54.498;18.206;2022-12-05T12:18:19;33.70;;;22.07;;
34102;SDS011;20381;54.498;18.206;2022-12-05T12:27:07;30.55;;;20.55;;
34102;SDS011;20381;54.498;18.206;2022-12-05T12:30:05;31.20;;;20.80;;
34102;SDS011;20381;54.498;18.206;2022-12-05T12:33:02;31.27;;;20.97;;
34102;SDS011;20381;54.498;18.206;2022-12-05T12:41:37;30.85;;;20.82;;
34102;SDS011;20381;54.498;18.206;2022-12-05T12:50:41;30.27;;;20.92;;
34102;SDS011;20381;54.498;18.206;2022-12-05T12:53:21;29.87;;;19.42;;
34102;SDS011;20381;54.498;18.206;2022-12-05T12:59:05;35.25;;;23.67;;
34102;SDS011;20381;54.498;18.206;2022-12-05T13:02:01;30.40;;;20.17;;
34102;SDS011;20381;54.498;18.206;2022-12-05T13:05:05;34.70;;;20.85;;
34102;SDS011;20381;54.498;18.206;2022-12-05T13:08:03;30.40;;;19.87;;
34102;SDS011;20381;54.498;18.206;2022-12-05T13:10:41;27.27;;;18.87;;
34102;SDS011;20381;54.498;18.206;2022-12-05T13:13:20;32.73;;;22.25;;
34102;SDS011;20381;54.498;18.206;2022-12-05T13:15:52;32.25;;;22.15;;
34102;SDS011;20381;54.498;18.206;2022-12-05T13:18:25;29.65;;;18.80;;
34102;SDS011;20381;54.498;18.206;2022-12-05T13:20:57;31.50;;;20.77;;
34102;SDS011;20381;54.498;18.206;2022-12-05T13:23:31;37.98;;;22.40;;
34102;SDS011;20381;54.498;18.206;2022-12-05T13:26:06;36.50;;;22.90;;
34102;SDS011;20381;54.498;18.206;2022-12-05T13:28:34;35.85;;;23.57;;
34102;SDS011;20381;54.498;18.206;2022-12-05T13:31:14;37.73;;;21.62;;
34102;SDS011;20381;54.498;18.206;2022-12-05T13:33:44;33.15;;;22.17;;
34102;SDS011;20381;54.498;18.206;2022-12-05T13:36:14;34.20;;;22.02;;
34102;SDS011;20381;54.498;18.206;2022-12-05T13:41:59;43.55;;;24.90;;
34102;SDS011;20381;54.498;18.206;2022-12-05T13:44:44;31.42;;;19.45;;
34102;SDS011;20381;54.498;18.206;2022-12-05T13:53:03;35.48;;;20.70;;
34102;SDS011;20381;54.498;18.206;2022-12-05T13:55:37;26.70;;;19.42;;
34102;SDS011;20381;54.498;18.206;2022-12-05T14:06:06;28.83;;;18.65;;
34102;SDS011;20381;54.498;18.206;2022-12-05T14:11:18;35.58;;;21.23;;
34102;SDS011;20381;54.498;18.206;2022-12-05T14:13:46;47.25;;;26.95;;
34102;SDS011;20381;54.498;18.206;2022-12-05T14:24:13;39.23;;;25.37;;
34102;SDS011;20381;54.498;18.206;2022-12-05T14:32:52;39.08;;;25.95;;
34102;SDS011;20381;54.498;18.206;2022-12-05T14:35:24;40.83;;;24.05;;
34102;SDS011;20381;54.498;18.206;2022-12-05T14:38:05;36.93;;;24.65;;
34102;SDS011;20381;54.498;18.206;2022-12-05T14:40:39;37.88;;;23.57;;
34102;SDS011;20381;54.498;18.206;2022-12-05T14:45:58;31.33;;;22.22;;
34102;SDS011;20381;54.498;18.206;2022-12-05T14:48:32;32.73;;;20.27;;
34102;SDS011;20381;54.498;18.206;2022-12-05T14:51:41;37.58;;;22.50;;
34102;SDS011;20381;54.498;18.206;2022-12-05T14:54:04;33.65;;;21.93;;
34102;SDS011;20381;54.498;18.206;2022-12-05T14:57:20;36.10;;;21.73;;
34102;SDS011;20381;54.498;18.206;2022-12-05T14:59:28;33.83;;;20.92;;
34102;SDS011;20381;54.498;18.206;2022-12-05T15:01:59;34.83;;;21.07;;
34102;SDS011;20381;54.498;18.206;2022-12-05T15:04:32;34.03;;;20.65;;
34102;SDS011;20381;54.498;18.206;2022-12-05T15:07:19;34.80;;;21.57;;
34102;SDS011;20381;54.498;18.206;2022-12-05T15:13:13;33.70;;;23.60;;
34102;SDS011;20381;54.498;18.206;2022-12-05T15:15:45;34.25;;;22.62;;
34102;SDS011;20381;54.498;18.206;2022-12-05T15:18:34;36.90;;;23.83;;
34102;SDS011;20381;54.498;18.206;2022-12-05T15:21:21;43.35;;;25.35;;
34102;SDS011;20381;54.498;18.206;2022-12-05T15:23:58;48.35;;;27.42;;
34102;SDS011;20381;54.498;18.206;2022-12-05T15:26:37;46.18;;;27.15;;
34102;SDS011;20381;54.498;18.206;2022-12-05T15:31:55;48.98;;;28.45;;
34102;SDS011;20381;54.498;18.206;2022-12-05T15:37:19;97.27;;;51.98;;
34102;SDS011;20381;54.498;18.206;2022-12-05T15:39:55;85.72;;;50.92;;
34102;SDS011;20381;54.498;18.206;2022-12-05T15:42:30;114.82;;;66.62;;
34102;SDS011;20381;54.498;18.206;2022-12-05T15:47:47;60.15;;;37.13;;
34102;SDS011;20381;54.498;18.206;2022-12-05T15:50:28;57.13;;;39.55;;
34102;SDS011;20381;54.498;18.206;2022-12-05T15:53:09;45.30;;;29.55;;
34102;SDS011;20381;54.498;18.206;2022-12-05T15:58:51;41.28;;;24.98;;
34102;SDS011;20381;54.498;18.206;2022-12-05T16:01:27;42.27;;;25.75;;
34102;SDS011;20381;54.498;18.206;2022-12-05T16:06:54;43.50;;;26.20;;
34102;SDS011;20381;54.498;18.206;2022-12-05T16:09:21;40.28;;;26.33;;
34102;SDS011;20381;54.498;18.206;2022-12-05T16:11:55;37.95;;;23.12;;
34102;SDS011;20381;54.498;18.206;2022-12-05T16:14:33;38.95;;;25.82;;
34102;SDS011;20381;54.498;18.206;2022-12-05T16:17:04;34.27;;;22.17;;
34102;SDS011;20381;54.498;18.206;2022-12-05T16:19:34;38.00;;;24.87;;
34102;SDS011;20381;54.498;18.206;2022-12-05T16:22:07;40.52;;;25.88;;
34102;SDS011;20381;54.498;18.206;2022-12-05T16:24:44;40.98;;;25.77;;
34102;SDS011;20381;54.498;18.206;2022-12-05T16:27:33;39.92;;;22.45;;
34102;SDS011;20381;54.498;18.206;2022-12-05T16:30:07;46.20;;;25.37;;
34102;SDS011;20381;54.498;18.206;2022-12-05T16:32:39;46.28;;;25.90;;
34102;SDS011;20381;54.498;18.206;2022-12-05T16:38:13;43.25;;;24.32;;
34102;SDS011;20381;54.498;18.206;2022-12-05T16:40:59;36.13;;;22.75;;
34102;SDS011;20381;54.498;18.206;2022-12-05T16:48:46;38.75;;;22.85;;
34102;SDS011;20381;54.498;18.206;2022-12-05T16:54:07;38.48;;;22.58;;
34102;SDS011;20381;54.498;18.206;2022-12-05T16:56:34;37.67;;;23.85;;
34102;SDS011;20381;54.498;18.206;2022-12-05T16:59:04;37.65;;;23.87;;
34102;SDS011;20381;54.498;18.206;2022-12-05T17:01:37;41.08;;;25.30;;
34102;SDS011;20381;54.498;18.206;2022-12-05T17:04:08;47.38;;;27.17;;
34102;SDS011;20381;54.498;18.206;2022-12-05T17:06:36;40.83;;;25.43;;
34102;SDS011;20381;54.498;18.206;2022-12-05T17:11:32;34.50;;;23.30;;
34102;SDS011;20381;54.498;18.206;2022-12-05T17:14:04;36.80;;;23.70;;
34102;SDS011;20381;54.498;18.206;2022-12-05T17:16:35;39.70;;;24.30;;
34102;SDS011;20381;54.498;18.206;2022-12-05T17:19:02;45.70;;;28.00;;
34102;SDS011;20381;54.498;18.206;2022-12-05T17:21:30;54.50;;;34.63;;
34102;SDS011;20381;54.498;18.206;2022-12-05T17:23:59;55.90;;;35.43;;
34102;SDS011;20381;54.498;18.206;2022-12-05T17:28:53;47.23;;;28.57;;
34102;SDS011;20381;54.498;18.206;2022-12-05T17:31:20;48.37;;;31.13;;
34102;SDS011;20381;54.498;18.206;2022-12-05T17:33:51;45.48;;;28.27;;
34102;SDS011;20381;54.498;18.206;2022-12-05T17:36:18;55.03;;;31.95;;
34102;SDS011;20381;54.498;18.206;2022-12-05T17:38:45;60.80;;;36.98;;
34102;SDS011;20381;54.498;18.206;2022-12-05T17:41:17;47.90;;;29.90;;
34102;SDS011;20381;54.498;18.206;2022-12-05T17:43:47;49.58;;;29.98;;
34102;SDS011;20381;54.498;18.206;2022-12-05T17:46:17;50.43;;;28.15;;
34102;SDS011;20381;54.498;18.206;2022-12-05T17:48:46;41.13;;;26.27;;
34102;SDS011;20381;54.498;18.206;2022-12-05T17:51:15;45.33;;;26.17;;
34102;SDS011;20381;54.498;18.206;2022-12-05T17:53:43;43.38;;;27.58;;
34102;SDS011;20381;54.498;18.206;2022-12-05T17:56:10;49.70;;;28.40;;
34102;SDS011;20381;54.498;18.206;2022-12-05T17:58:37;112.28;;;86.65;;
34102;SDS011;20381;54.498;18.206;2022-12-05T18:01:04;114.92;;;77.70;;
34102;SDS011;20381;54.498;18.206;2022-12-05T18:03:31;83.42;;;58.70;;